Time;durP1;ratioP1;P1;durP2;ratioP2;P2;SDS_P1;SDS_P2;PMS_P1;PMS_P2;Temp;Humidity;BMP_temperature;BMP_pressure;BME280_temperature;BME280_humidity;BME280_pressure;Samples;Min_cycle;Max_cycle;Signal;HPM_P1;HPM_P2
2022/02/05 00:02:07;;;;;;;;;2.50;2.50;;;;;;;;6262847;22;10123;-82
2022/02/05 00:04:34;;;;;;;;;1.00;1.00;;;;;;;;6319875;22;8742;-85
2022/02/05 00:07:00;;;;;;;;;6.00;4.50;;;;;;;;6320434;22;9287;-85
2022/02/05 00:09:45;;;;;;;;;6.00;5.00;;;;;;;;6318487;22;8790;-83
2022/02/05 00:14:54;;;;;;;;;6.00;3.00;;;;;;;;6323565;22;8858;-84
2022/02/05 00:39:55;;;;;;;;;;;;;;;;;;3033765;22;234068188;-85
2022/02/05 00:48:54;;;;;;;;;2.50;2.50;;;;;;;;2;279081178;279081178;-85
2022/02/05 01:06:18;;;;;;;;;9.50;4.00;;;;;;;;2;279078978;279078978;-85
2022/02/05 01:16:56;;;;;;;;;0.50;0.50;;;;;;;;215444;22;279079545;-85
2022/02/05 01:25:14;;;;;;;;;2.00;2.00;;;;;;;;2;233838413;233838413;-85
2022/02/05 01:34:21;;;;;;;;;5.00;5.00;;;;;;;;2;279078092;279078092;-85
2022/02/05 01:57:02;;;;;;;;;2.50;2.50;;;;;;;;2;232022882;232022882;-85
2022/02/05 02:05:55;;;;;;;;;4.50;4.50;;;;;;;;2;270126379;270126379;-85
2022/02/05 02:23:47;;;;;;;;;1.00;1.00;;;;;;;;2;278906972;278906972;-85
2022/02/05 02:32:03;;;;;;;;;3.50;3.50;;;;;;;;2;234066941;234066941;-85
2022/02/05 02:41:17;;;;;;;;;8.00;3.50;;;;;;;;2;279079365;279079365;-85
2022/02/05 02:49:45;;;;;;;;;5.50;5.50;;;;;;;;2;234067745;234067745;-85
2022/02/05 02:58:47;;;;;;;;;29.50;6.00;;;;;;;;2;279080609;279080609;-85
2022/02/05 03:07:04;;;;;;;;;5.50;5.50;;;;;;;;2;234069253;234069253;-85
2022/02/05 03:16:06;;;;;;;;;3.00;3.00;;;;;;;;2;279080916;279080916;-85
2022/02/05 03:24:22;;;;;;;;;5.00;1.00;;;;;;;;2;234067506;234067506;-85
2022/02/05 03:33:22;;;;;;;;;3.00;1.50;;;;;;;;2;279080678;279080678;-85
2022/02/05 03:41:38;;;;;;;;;1.50;1.50;;;;;;;;2;234068378;234068378;-83
2022/02/05 03:50:37;;;;;;;;;2.00;2.00;;;;;;;;2;277844175;277844175;-83
2022/02/05 03:58:53;;;;;;;;;1.00;1.00;;;;;;;;2;234068712;234068712;-83
2022/02/05 04:07:54;;;;;;;;;12.00;1.00;;;;;;;;2;279082207;279082207;-83
2022/02/05 04:25:22;;;;;;;;;0.50;0.50;;;;;;;;2;278936112;278936112;-83
2022/02/05 04:33:38;;;;;;;;;2.50;2.50;;;;;;;;2;233990981;233990981;-86
2022/02/05 04:42:58;;;;;;;;;5.50;5.50;;;;;;;;2;278925537;278925537;-83
2022/02/05 05:00:25;;;;;;;;;2.50;2.50;;;;;;;;2;279079287;279079287;-86
2022/02/05 05:08:53;;;;;;;;;10.00;0.50;;;;;;;;2;233922092;233922092;-86
2022/02/05 05:26:27;;;;;;;;;1.00;1.00;;;;;;;;2;234068030;234068030;-85
2022/02/05 05:35:28;;;;;;;;;1.00;1.00;;;;;;;;2;279082084;279082084;-85
2022/02/05 05:52:23;;;;;;;;;1.00;1.00;;;;;;;;2;260487581;260487581;-85
2022/02/05 06:00:24;;;;;;;;;2.00;2.00;;;;;;;;2;224228595;224228595;-85
2022/02/05 06:09:24;;;;;;;;;1.00;1.00;;;;;;;;2;279067712;279067712;-85
2022/02/05 06:17:39;;;;;;;;;0.50;0.50;;;;;;;;2;233673712;233673712;-85
2022/02/05 06:26:40;;;;;;;;;1.00;1.00;;;;;;;;2;279081557;279081557;-85
2022/02/05 06:34:55;;;;;;;;;0.50;0.50;;;;;;;;2;234066857;234066857;-85
2022/02/05 06:43:56;;;;;;;;;4.50;0.00;;;;;;;;2;279082008;279082008;-85
2022/02/05 06:52:11;;;;;;;;;1.50;1.50;;;;;;;;2;234069217;234069217;-85
2022/02/05 07:01:11;;;;;;;;;1.00;1.00;;;;;;;;2;279080518;279080518;-85
2022/02/05 07:09:20;;;;;;;;;0.50;0.50;;;;;;;;2;229750031;229750031;-85
2022/02/05 07:35:52;;;;;;;;;2.50;2.50;;;;;;;;2;279083799;279083799;-85
2022/02/05 07:44:11;;;;;;;;;1.00;1.00;;;;;;;;2;234064737;234064737;-85
2022/02/05 07:53:11;;;;;;;;;0.00;0.00;;;;;;;;2;279081722;279081722;-85
2022/02/05 08:01:28;;;;;;;;;1.00;1.00;;;;;;;;2;234071357;234071357;-84
2022/02/05 08:10:15;;;;;;;;;0.00;0.00;;;;;;;;2;274612624;274612624;-87
2022/02/05 08:18:30;;;;;;;;;1.00;1.00;;;;;;;;2;234071311;234071311;-84
2022/02/05 08:27:31;;;;;;;;;1.00;1.00;;;;;;;;2;279081634;279081634;-83
2022/02/05 08:35:49;;;;;;;;;0.50;0.50;;;;;;;;2;234069408;234069408;-82
2022/02/05 08:44:49;;;;;;;;;2.50;2.50;;;;;;;;2;278848402;278848402;-85
2022/02/05 08:53:05;;;;;;;;;5.00;1.00;;;;;;;;2;234069661;234069661;-85
2022/02/05 09:02:14;;;;;;;;;0.50;0.50;;;;;;;;2;279081199;279081199;-84
2022/02/05 09:10:39;;;;;;;;;9.50;9.50;;;;;;;;2;234073096;234073096;-84
2022/02/05 09:19:40;;;;;;;;;6.50;6.50;;;;;;;;2;279082507;279082507;-85
2022/02/05 09:27:56;;;;;;;;;1.00;1.00;;;;;;;;2;234069307;234069307;-84
2022/02/05 09:36:58;;;;;;;;;2.00;2.00;;;;;;;;2;279080872;279080872;-85
2022/02/05 09:45:14;;;;;;;;;15.50;3.50;;;;;;;;2;234073874;234073874;-85
2022/02/05 09:54:14;;;;;;;;;1.00;1.00;;;;;;;;2;279079790;279079790;-84
2022/02/05 10:02:34;;;;;;;;;9.00;6.50;;;;;;;;2;234069610;234069610;-85
2022/02/05 10:11:49;;;;;;;;;4.50;4.50;;;;;;;;2;279082697;279082697;-84
2022/02/05 10:20:00;;;;;;;;;3.00;3.00;;;;;;;;2;233978005;233978005;-85
2022/02/05 10:29:02;;;;;;;;;2.50;2.50;;;;;;;;2;279080930;279080930;-84
2022/02/05 10:37:21;;;;;;;;;3.50;3.50;;;;;;;;2;234067823;234067823;-83
2022/02/05 10:46:21;;;;;;;;;1.50;1.50;;;;;;;;2;278698931;278698931;-84
2022/02/05 10:54:56;;;;;;;;;3.00;3.00;;;;;;;;2;234069589;234069589;-85
2022/02/05 11:21:48;;;;;;;;;5.00;1.00;;;;;;;;2;278616529;278616529;-82
2022/02/05 11:30:22;;;;;;;;;4.00;0.50;;;;;;;;2;234067903;234067903;-82
2022/02/05 11:39:18;;;;;;;;;1.00;1.00;;;;;;;;2;279081074;279081074;-82
2022/02/05 11:47:33;;;;;;;;;2.00;2.00;;;;;;;;2;233117453;233117453;-82
2022/02/05 11:55:45;;;;;;;;;4.50;0.50;;;;;;;;2;228932816;228932816;-82
2022/02/05 12:04:15;;;;;;;;;1.50;1.50;;;;;;;;2;234070231;234070231;-82
2022/02/05 12:13:26;;;;;;;;;0.50;0.50;;;;;;;;2;279082589;279082589;-82
2022/02/05 12:21:52;;;;;;;;;3.00;3.00;;;;;;;;2;231151673;231151673;-82
2022/02/05 12:30:52;;;;;;;;;2.50;2.50;;;;;;;;2;279077880;279077880;-82
2022/02/05 12:39:08;;;;;;;;;6.00;2.50;;;;;;;;2;231170288;231170288;-82
2022/02/05 12:48:08;;;;;;;;;11.00;11.00;;;;;;;;2;277127777;277127777;-82
2022/02/05 12:56:20;;;;;;;;;2.00;2.00;;;;;;;;2;232507939;232507939;-82
2022/02/05 13:05:18;;;;;;;;;0.00;0.00;;;;;;;;2;279078752;279078752;-82
2022/02/05 13:13:36;;;;;;;;;2.50;0.00;;;;;;;;2;234068996;234068996;-82
2022/02/05 13:40:23;;;;;;;;;2.50;2.50;;;;;;;;2;272335909;272335909;-86
2022/02/05 13:48:38;;;;;;;;;1.00;1.00;;;;;;;;2;234071906;234071906;-81
2022/02/05 13:57:57;;;;;;;;;4.00;0.00;;;;;;;;2;279082002;279082002;-79
2022/02/05 14:06:15;;;;;;;;;0.00;0.00;;;;;;;;2;234071024;234071024;-79
2022/02/05 14:15:16;;;;;;;;;1.00;1.00;;;;;;;;2;279081545;279081545;-79
2022/02/05 14:23:32;;;;;;;;;1.00;1.00;;;;;;;;2;234071222;234071222;-79
2022/02/05 14:40:51;;;;;;;;;1.50;1.50;;;;;;;;2;234067788;234067788;-81
2022/02/05 14:49:32;;;;;;;;;1.00;1.00;;;;;;;;2;279083153;279083153;-81
2022/02/05 14:57:48;;;;;;;;;1.00;1.00;;;;;;;;2;234071248;234071248;-84
2022/02/05 15:10:11;;;;;;;;;0.00;0.00;;;;;;;;2;279077118;279077118;-83
2022/02/05 15:18:27;;;;;;;;;5.50;1.50;;;;;;;;2;234066834;234066834;-83
2022/02/05 15:27:27;;;;;;;;;0.50;0.50;;;;;;;;2;278678902;278678902;-82
2022/02/05 15:35:42;;;;;;;;;2.00;2.00;;;;;;;;2;234068364;234068364;-82
2022/02/05 15:44:42;;;;;;;;;1.00;1.00;;;;;;;;2;279079728;279079728;-82
2022/02/05 15:52:58;;;;;;;;;0.00;0.00;;;;;;;;2;233670669;233670669;-82
2022/02/05 16:01:57;;;;;;;;;0.00;0.00;;;;;;;;2;277289208;277289208;-83
2022/02/05 16:10:12;;;;;;;;;5.00;0.00;;;;;;;;2;234071476;234071476;-78
2022/02/05 16:19:08;;;;;;;;;0.00;0.00;;;;;;;;2;278856525;278856525;-81
2022/02/05 16:27:25;;;;;;;;;3.00;3.00;;;;;;;;2;234067335;234067335;-79
2022/02/05 16:36:30;;;;;;;;;2.50;2.50;;;;;;;;2;279083830;279083830;-81
2022/02/05 16:44:45;;;;;;;;;0.00;0.00;;;;;;;;2;234001618;234001618;-81
2022/02/05 16:53:49;;;;;;;;;2.00;2.00;;;;;;;;2;278959067;278959067;-80
2022/02/05 17:02:01;;;;;;;;;5.50;5.50;;;;;;;;2;230315756;230315756;-83
2022/02/05 17:11:06;;;;;;;;;3.00;3.00;;;;;;;;2;279080377;279080377;-82
2022/02/05 17:19:22;;;;;;;;;3.50;3.50;;;;;;;;2;234070025;234070025;-81
2022/02/05 17:28:22;;;;;;;;;8.00;4.00;;;;;;;;2;278500727;278500727;-83
2022/02/05 17:36:34;;;;;;;;;2.50;2.50;;;;;;;;2;230863697;230863697;-83
2022/02/05 17:45:33;;;;;;;;;6.00;6.00;;;;;;;;2;278816254;278816254;-83
2022/02/05 17:53:45;;;;;;;;;3.50;3.50;;;;;;;;2;233635803;233635803;-82
2022/02/05 18:02:36;;;;;;;;;3.50;3.50;;;;;;;;2;270306060;270306060;-83
2022/02/05 18:19:48;;;;;;;;;4.00;4.00;;;;;;;;2;278986301;278986301;-83
2022/02/05 18:28:03;;;;;;;;;16.00;4.00;;;;;;;;2;234067903;234067903;-83
2022/02/05 18:37:04;;;;;;;;;2.50;2.50;;;;;;;;2;279081874;279081874;-83
2022/02/05 18:45:23;;;;;;;;;8.00;8.00;;;;;;;;2;234068885;234068885;-83
2022/02/05 18:54:24;;;;;;;;;11.00;11.00;;;;;;;;2;279083050;279083050;-81
2022/02/05 19:11:57;;;;;;;;;4.50;3.00;;;;;;;;2;279082684;279082684;-82
2022/02/05 19:20:04;;;;;;;;;18.00;6.00;;;;;;;;2;234068540;234068540;-82
2022/02/05 19:29:04;;;;;;;;;2.50;2.50;;;;;;;;2;279082935;279082935;-83
2022/02/05 19:37:20;;;;;;;;;6.50;6.50;;;;;;;;2;234071583;234071583;-82
2022/02/05 19:46:35;;;;;;;;;9.50;5.50;;;;;;;;2;279032096;279032096;-85
2022/02/05 19:54:47;;;;;;;;;6.00;6.00;;;;;;;;2;233549636;233549636;-83
2022/02/05 20:03:41;;;;;;;;;7.00;7.00;;;;;;;;2;278093154;278093154;-83
2022/02/05 20:11:52;;;;;;;;;7.50;7.50;;;;;;;;2;229246776;229246776;-84
2022/02/05 20:20:11;;;;;;;;;5.50;5.50;;;;;;;;2;279081652;279081652;-84
2022/02/05 20:28:29;;;;;;;;;6.00;4.50;;;;;;;;2;234068143;234068143;-84
2022/02/05 20:33:30;;;;;;;;;18.00;6.00;;;;;;;;2;223813923;223813923;-84
2022/02/05 20:41:43;;;;;;;;;6.50;6.50;;;;;;;;2;231626515;231626515;-84
2022/02/05 20:50:44;;;;;;;;;4.50;4.50;;;;;;;;2;279082104;279082104;-84
2022/02/05 20:58:59;;;;;;;;;5.00;5.00;;;;;;;;2;234070015;234070015;-84
2022/02/05 21:08:00;;;;;;;;;8.00;4.50;;;;;;;;2;279081333;279081333;-84
2022/02/05 21:16:15;;;;;;;;;3.50;3.50;;;;;;;;2;234067202;234067202;-84
2022/02/05 21:25:02;;;;;;;;;3.50;3.50;;;;;;;;2;265765724;265765724;-84
2022/02/05 21:42:23;;;;;;;;;3.50;3.50;;;;;;;;2;279078771;279078771;-83
2022/02/05 21:50:39;;;;;;;;;14.00;5.00;;;;;;;;2;234065786;234065786;-81
2022/02/05 21:57:00;;;;;;;;;28.50;5.50;;;;;;;;2;279070158;279070158;-84
2022/02/05 22:05:12;;;;;;;;;2.00;2.00;;;;;;;;2;230802683;230802683;-85
2022/02/05 22:14:15;;;;;;;;;3.50;3.50;;;;;;;;2;279083509;279083509;-85
2022/02/05 22:22:30;;;;;;;;;13.00;2.00;;;;;;;;2;234067778;234067778;-86
2022/02/05 22:31:31;;;;;;;;;3.50;3.50;;;;;;;;2;279082417;279082417;-85
2022/02/05 22:39:16;;;;;;;;;4.50;4.50;;;;;;;;2;229688153;229688153;-85
2022/02/05 22:47:43;;;;;;;;;2.50;2.50;;;;;;;;2;244410626;244410626;-85
2022/02/05 22:55:58;;;;;;;;;13.50;1.50;;;;;;;;2;234071907;234071907;-84
2022/02/05 23:04:58;;;;;;;;;15.50;3.50;;;;;;;;2;279083021;279083021;-84
2022/02/05 23:48:42;;;;;;;;;12.50;3.00;;;;;;;;2;234067753;234067753;-84
2022/02/05 23:55:42;;;;;;;;;2.00;2.00;;;;;;;;2;167086965;167086965;-84
